createdAt,value
2023-04-21T00:00:15.957Z,3.25
2023-04-21T00:02:43.331Z,3.47
2023-04-21T00:05:11.299Z,4.18
2023-04-21T00:07:39.505Z,3.83
2023-04-21T00:10:10.887Z,3.97
2023-04-21T00:12:38.493Z,4.28
2023-04-21T00:15:06.180Z,3.60
2023-04-21T00:17:33.190Z,3.97
2023-04-21T00:20:00.304Z,3.75
2023-04-21T00:22:27.343Z,3.53
2023-04-21T00:24:54.293Z,3.92
2023-04-21T00:27:21.564Z,3.90
2023-04-21T00:29:48.558Z,3.58
2023-04-21T00:32:16.368Z,3.72
2023-04-21T00:34:43.361Z,3.97
2023-04-21T00:37:12.312Z,3.30
2023-04-21T00:39:39.905Z,3.22
2023-04-21T00:42:06.975Z,4.07
2023-04-21T00:44:35.855Z,4.05
2023-04-21T00:47:04.131Z,3.42
2023-04-21T00:49:31.375Z,3.15
2023-04-21T00:51:58.701Z,3.65
2023-04-21T00:54:26.233Z,3.45
2023-04-21T00:56:57.037Z,4.05
2023-04-21T00:59:24.220Z,3.42
2023-04-21T01:01:52.937Z,3.83
2023-04-21T01:04:21.747Z,3.60
2023-04-21T01:06:49.106Z,3.90
2023-04-21T01:09:16.389Z,3.40
2023-04-21T01:11:59.985Z,4.10
2023-04-21T01:14:27.014Z,3.65
2023-04-21T01:16:54.042Z,3.67
2023-04-21T01:19:21.618Z,4.43
2023-04-21T01:21:49.414Z,4.25
2023-04-21T01:24:16.474Z,3.80
2023-04-21T01:26:46.184Z,3.88
2023-04-21T01:29:13.154Z,4.38
2023-04-21T01:31:40.296Z,4.75
2023-04-21T01:34:08.181Z,4.10
2023-04-21T01:36:37.362Z,3.90
2023-04-21T01:39:04.918Z,3.88
2023-04-21T01:41:31.902Z,3.72
2023-04-21T01:43:58.980Z,4.22
2023-04-21T01:46:26.124Z,4.10
2023-04-21T01:48:53.191Z,3.67
2023-04-21T01:51:20.189Z,4.63
2023-04-21T01:53:47.247Z,3.67
2023-04-21T01:56:15.475Z,3.40
2023-04-21T01:58:42.525Z,3.70
2023-04-21T02:01:09.601Z,4.22
2023-04-21T02:03:36.820Z,4.03
2023-04-21T02:06:04.281Z,3.83
2023-04-21T02:08:31.235Z,3.90
2023-04-21T02:10:58.300Z,3.75
2023-04-21T02:13:25.357Z,3.20
2023-04-21T02:16:02.447Z,3.40
2023-04-21T02:18:34.575Z,3.63
2023-04-21T02:21:03.049Z,3.90
2023-04-21T02:23:30.091Z,4.05
2023-04-21T02:25:57.110Z,3.90
2023-04-21T02:28:24.173Z,4.18
2023-04-21T02:30:51.241Z,3.38
2023-04-21T02:33:18.499Z,3.53
2023-04-21T02:35:45.592Z,3.42
2023-04-21T02:38:12.870Z,3.45
2023-04-21T02:40:42.784Z,4.28
2023-04-21T02:43:09.930Z,3.13
2023-04-21T02:45:40.713Z,2.97
2023-04-21T02:48:07.854Z,3.40
2023-04-21T02:50:34.999Z,4.40
2023-04-21T02:53:02.239Z,3.67
2023-04-21T02:55:29.395Z,4.18
2023-04-21T02:57:56.538Z,3.53
2023-04-21T03:00:24.435Z,3.75
2023-04-21T03:02:53.548Z,3.58
2023-04-21T03:05:21.242Z,3.80
2023-04-21T03:07:48.255Z,3.83
2023-04-21T03:10:15.456Z,3.70
2023-04-21T03:12:42.669Z,3.72
2023-04-21T03:15:09.836Z,3.72
2023-04-21T03:17:37.130Z,4.35
2023-04-21T03:20:08.397Z,4.22
2023-04-21T03:22:41.620Z,4.30
2023-04-21T03:25:08.828Z,4.13
2023-04-21T03:27:35.947Z,4.60
2023-04-21T03:30:04.751Z,4.22
2023-04-21T03:32:31.827Z,4.15
2023-04-21T03:34:58.890Z,5.22
2023-04-21T03:37:25.955Z,4.07
2023-04-21T03:39:53.119Z,4.75
2023-04-21T03:42:20.518Z,4.10
2023-04-21T03:44:49.125Z,4.32
2023-04-21T03:47:17.592Z,4.75
2023-04-21T03:49:44.657Z,5.03
2023-04-21T03:52:12.068Z,5.18
2023-04-21T03:54:39.000Z,5.25
2023-04-21T03:57:05.947Z,5.53
2023-04-21T03:59:32.933Z,5.13
2023-04-21T04:02:00.037Z,5.20
2023-04-21T04:04:27.334Z,5.43
2023-04-21T04:06:54.577Z,5.85
2023-04-21T04:09:21.733Z,5.70
2023-04-21T04:11:48.836Z,5.97
2023-04-21T04:14:16.049Z,7.35
2023-04-21T04:16:43.305Z,6.55
2023-04-21T04:19:10.517Z,4.70
2023-04-21T04:21:37.959Z,4.55
2023-04-21T04:24:08.894Z,5.45
2023-04-21T04:26:38.463Z,5.38
2023-04-21T04:29:06.217Z,5.57
2023-04-21T04:31:33.376Z,5.22
2023-04-21T04:34:00.346Z,4.95
2023-04-21T04:36:28.522Z,4.90
2023-04-21T04:38:56.408Z,3.90
2023-04-21T04:41:24.338Z,4.63
2023-04-21T04:43:52.278Z,4.30
2023-04-21T04:46:20.663Z,4.10
2023-04-21T04:48:48.220Z,4.40
2023-04-21T04:51:16.328Z,4.47
2023-04-21T04:53:43.329Z,3.80
2023-04-21T04:56:10.338Z,3.83
2023-04-21T04:58:37.418Z,4.03
2023-04-21T05:01:17.484Z,3.38
2023-04-21T05:03:45.905Z,2.83
2023-04-21T05:06:14.391Z,3.63
2023-04-21T05:08:41.706Z,4.07
2023-04-21T05:11:09.190Z,4.03
2023-04-21T05:13:38.395Z,3.05
2023-04-21T05:16:07.564Z,3.33
2023-04-21T05:18:34.615Z,2.90
2023-04-21T05:21:01.799Z,2.38
2023-04-21T05:23:28.859Z,2.50
2023-04-21T05:25:55.852Z,1.90
2023-04-21T05:28:23.314Z,2.13
2023-04-21T05:30:50.374Z,2.33
2023-04-21T05:33:21.468Z,3.00
2023-04-21T05:35:48.497Z,2.40
2023-04-21T05:38:15.551Z,2.97
2023-04-21T05:40:42.756Z,3.05
2023-04-21T05:43:09.755Z,2.40
2023-04-21T05:45:40.853Z,2.58
2023-04-21T05:48:08.170Z,2.17
2023-04-21T05:50:35.857Z,2.50
2023-04-21T05:53:02.930Z,2.50
2023-04-21T05:55:30.097Z,2.10
2023-04-21T05:57:59.824Z,2.42
2023-04-21T06:00:26.876Z,2.10
2023-04-21T06:02:54.291Z,2.80
2023-04-21T06:05:21.801Z,2.13
2023-04-21T06:07:48.804Z,2.72
2023-04-21T06:10:18.520Z,2.13
2023-04-21T06:12:45.806Z,2.20
2023-04-21T06:15:13.067Z,1.60
2023-04-21T06:17:40.186Z,1.90
2023-04-21T06:20:08.817Z,1.65
2023-04-21T06:22:35.855Z,2.55
2023-04-21T06:25:02.990Z,1.65
2023-04-21T06:27:30.026Z,1.50
2023-04-21T06:29:58.358Z,1.90
2023-04-21T06:32:25.429Z,1.38
2023-04-21T06:34:52.514Z,1.40
2023-04-21T06:37:19.774Z,1.52
2023-04-21T06:39:46.988Z,1.48
2023-04-21T06:42:13.985Z,1.50
2023-04-21T06:44:43.228Z,1.30
2023-04-21T06:47:10.394Z,1.00
2023-04-21T06:49:37.563Z,1.55
2023-04-21T06:52:05.074Z,1.27
2023-04-21T06:54:32.117Z,1.90
2023-04-21T06:56:59.353Z,1.02
2023-04-21T06:59:26.532Z,1.35
2023-04-21T07:01:53.605Z,1.45
2023-04-21T07:04:21.193Z,1.60
2023-04-21T07:06:49.329Z,1.58
2023-04-21T07:09:16.340Z,1.15
2023-04-21T07:11:43.429Z,0.90
2023-04-21T07:14:11.101Z,1.40
2023-04-21T07:16:38.295Z,0.88
2023-04-21T07:19:05.445Z,1.05
2023-04-21T07:21:36.247Z,0.90
2023-04-21T07:24:03.776Z,1.95
2023-04-21T07:26:30.914Z,1.00
2023-04-21T07:28:58.667Z,0.68
2023-04-21T07:31:26.104Z,0.90
2023-04-21T07:33:53.128Z,0.80
2023-04-21T07:36:20.233Z,0.80
2023-04-21T07:38:47.187Z,0.90
2023-04-21T07:41:14.393Z,0.70
2023-04-21T07:43:41.480Z,0.90
2023-04-21T07:46:08.572Z,0.73
2023-04-21T07:48:35.641Z,0.80
2023-04-21T07:51:03.513Z,1.05
2023-04-21T07:53:31.194Z,0.90
2023-04-21T07:55:58.565Z,0.88
2023-04-21T07:58:25.676Z,0.75
2023-04-21T08:00:52.803Z,0.95
2023-04-21T08:03:22.173Z,0.75
2023-04-21T08:05:51.284Z,0.80
2023-04-21T08:08:20.515Z,0.80
2023-04-21T08:10:47.651Z,0.95
2023-04-21T08:13:14.904Z,1.00
2023-04-21T08:15:41.955Z,0.60
2023-04-21T08:18:09.492Z,1.52
2023-04-21T08:20:36.648Z,1.10
2023-04-21T08:23:03.776Z,1.17
2023-04-21T08:25:31.093Z,0.93
2023-04-21T08:27:58.109Z,1.33
2023-04-21T08:30:27.889Z,1.10
2023-04-21T08:32:55.492Z,1.15
2023-04-21T08:35:22.879Z,0.90
2023-04-21T08:37:51.511Z,1.42
2023-04-21T08:40:19.800Z,1.08
2023-04-21T08:42:48.479Z,1.27
2023-04-21T08:45:15.682Z,1.77
2023-04-21T08:47:43.106Z,0.90
2023-04-21T08:50:14.025Z,1.50
2023-04-21T08:52:41.069Z,1.15
2023-04-21T08:55:09.940Z,1.42
2023-04-21T08:57:37.071Z,1.10
2023-04-21T09:00:07.886Z,1.75
2023-04-21T09:03:00.190Z,1.38
2023-04-21T09:05:33.902Z,2.08
2023-04-21T09:08:12.461Z,1.38
2023-04-21T09:10:48.127Z,2.92
2023-04-21T09:13:16.169Z,1.45
2023-04-21T09:15:44.798Z,2.08
2023-04-21T09:18:15.834Z,2.70
2023-04-21T09:20:45.279Z,2.42
2023-04-21T09:23:12.534Z,1.70
2023-04-21T09:25:41.450Z,1.92
2023-04-21T09:28:17.496Z,1.90
2023-04-21T09:30:44.552Z,2.10
2023-04-21T09:33:28.942Z,1.83
2023-04-21T09:36:02.155Z,1.25
2023-04-21T09:38:29.179Z,1.50
2023-04-21T09:40:59.963Z,1.60
2023-04-21T09:43:27.071Z,1.50
2023-04-21T09:45:56.088Z,1.95
2023-04-21T09:48:29.522Z,2.13
2023-04-21T09:53:29.646Z,2.27
2023-04-21T09:55:59.856Z,2.20
2023-04-21T09:58:35.112Z,2.05
2023-04-21T10:01:04.596Z,1.90
2023-04-21T10:03:32.620Z,1.52
2023-04-21T10:06:00.919Z,3.00
2023-04-21T10:08:28.114Z,3.03
2023-04-21T10:10:55.535Z,2.03
2023-04-21T10:13:23.111Z,2.17
2023-04-21T10:16:05.192Z,2.33
2023-04-21T10:18:32.238Z,2.60
2023-04-21T10:21:04.629Z,2.47
2023-04-21T10:26:16.860Z,2.67
2023-04-21T10:29:06.971Z,3.55
2023-04-21T10:31:51.770Z,1.98
2023-04-21T10:34:21.304Z,2.90
2023-04-21T10:36:54.600Z,2.28
2023-04-21T10:39:42.804Z,2.33
2023-04-21T10:42:13.136Z,2.42
2023-04-21T10:44:58.560Z,2.15
2023-04-21T10:47:27.174Z,2.00
2023-04-21T10:49:56.754Z,3.00
2023-04-21T10:52:33.855Z,2.50
2023-04-21T10:55:12.616Z,2.55
2023-04-21T10:57:42.867Z,3.05
2023-04-21T11:00:11.575Z,2.60
2023-04-21T11:02:40.461Z,2.78
2023-04-21T11:05:10.464Z,2.70
2023-04-21T11:07:37.723Z,2.70
2023-04-21T11:10:07.983Z,2.67
2023-04-21T11:12:38.408Z,2.75
2023-04-21T11:15:10.848Z,2.92
2023-04-21T11:20:11.261Z,2.70
2023-04-21T11:22:38.838Z,3.25
2023-04-21T11:25:06.671Z,3.15
2023-04-21T11:27:33.710Z,2.67
2023-04-21T11:30:04.161Z,3.10
2023-04-21T11:32:31.474Z,2.53
2023-04-21T11:34:58.564Z,2.55
2023-04-21T11:37:27.948Z,2.70
2023-04-21T11:40:01.696Z,3.05
2023-04-21T11:42:29.201Z,2.80
2023-04-21T11:44:59.865Z,3.15
2023-04-21T11:47:28.877Z,2.83
2023-04-21T11:49:58.244Z,2.47
2023-04-21T11:52:33.490Z,2.30
2023-04-21T11:55:03.297Z,2.70
2023-04-21T11:57:32.630Z,2.85
2023-04-21T12:00:00.969Z,2.63
2023-04-21T12:02:30.470Z,2.30
2023-04-21T12:05:15.950Z,2.65
2023-04-21T12:07:45.210Z,2.90
2023-04-21T12:10:21.531Z,2.92
2023-04-21T12:12:48.927Z,2.38
2023-04-21T12:15:21.609Z,2.70
2023-04-21T12:17:51.345Z,2.53
2023-04-21T12:20:20.881Z,2.75
2023-04-21T12:22:49.103Z,2.20
2023-04-21T12:25:16.626Z,2.85
2023-04-21T12:27:57.396Z,2.55
2023-04-21T12:30:24.647Z,2.40
2023-04-21T12:32:52.482Z,2.58
2023-04-21T12:35:19.588Z,2.58
2023-04-21T12:37:49.098Z,3.10
2023-04-21T12:40:16.204Z,2.50
2023-04-21T12:42:43.237Z,2.58
2023-04-21T12:45:10.629Z,2.67
2023-04-21T12:47:37.786Z,2.70
2023-04-21T12:50:05.384Z,3.15
2023-04-21T12:52:32.420Z,2.65
2023-04-21T12:54:59.487Z,2.40
2023-04-21T12:57:26.572Z,3.45
2023-04-21T12:59:53.688Z,2.67
2023-04-21T13:02:21.126Z,2.75
2023-04-21T13:04:48.282Z,3.03
2023-04-21T13:07:16.282Z,3.20
2023-04-21T13:09:43.713Z,3.13
2023-04-21T13:12:10.686Z,4.15
2023-04-21T13:14:37.710Z,3.20
2023-04-21T13:17:06.219Z,3.25
2023-04-21T13:19:33.663Z,2.78
2023-04-21T13:22:01.064Z,3.00
2023-04-21T13:24:28.091Z,3.38
2023-04-21T13:26:56.129Z,3.05
2023-04-21T13:29:23.227Z,3.05
2023-04-21T13:31:50.435Z,3.10
2023-04-21T13:34:17.384Z,3.22
2023-04-21T13:36:44.429Z,3.85
2023-04-21T13:39:11.798Z,3.03
2023-04-21T13:41:38.870Z,3.25
2023-04-21T13:44:06.177Z,3.65
2023-04-21T13:46:33.312Z,3.13
2023-04-21T13:49:00.518Z,3.35
2023-04-21T13:51:27.561Z,3.80
2023-04-21T13:53:54.695Z,2.95
2023-04-21T13:56:22.049Z,3.05
2023-04-21T13:58:49.949Z,2.85
2023-04-21T14:01:18.535Z,3.17
2023-04-21T14:03:47.098Z,3.63
2023-04-21T14:06:14.261Z,2.65
2023-04-21T14:08:41.386Z,3.33
2023-04-21T14:11:08.413Z,3.20
2023-04-21T14:13:44.702Z,3.70
2023-04-21T14:16:15.177Z,2.90
2023-04-21T14:18:45.197Z,3.05
2023-04-21T14:21:12.353Z,2.72
2023-04-21T14:23:39.707Z,3.92
2023-04-21T14:26:06.782Z,4.95
2023-04-21T14:28:34.351Z,3.60
2023-04-21T14:31:01.927Z,3.60
2023-04-21T14:33:29.752Z,3.78
2023-04-21T14:35:56.960Z,2.78
2023-04-21T14:38:24.548Z,3.00
2023-04-21T14:40:54.555Z,2.75
2023-04-21T14:43:22.218Z,2.50
2023-04-21T14:45:49.598Z,2.88
2023-04-21T14:48:16.778Z,2.30
2023-04-21T14:50:44.286Z,3.03
2023-04-21T14:53:11.396Z,2.70
2023-04-21T14:55:38.638Z,2.40
2023-04-21T14:58:05.780Z,2.28
2023-04-21T15:00:34.763Z,2.67
2023-04-21T15:03:02.181Z,2.45
2023-04-21T15:05:29.426Z,2.95
2023-04-21T15:07:56.600Z,3.40
2023-04-21T15:10:23.615Z,2.88
2023-04-21T15:12:50.748Z,3.67
2023-04-21T15:15:18.013Z,2.53
2023-04-21T15:17:45.174Z,2.63
2023-04-21T15:20:12.181Z,2.65
2023-04-21T15:22:39.412Z,2.80
2023-04-21T15:25:06.845Z,2.65
2023-04-21T15:27:34.573Z,2.97
2023-04-21T15:30:02.392Z,3.53
2023-04-21T15:32:30.024Z,3.05
2023-04-21T15:34:57.049Z,2.80
2023-04-21T15:37:25.785Z,2.92
2023-04-21T15:39:53.155Z,3.05
2023-04-21T15:42:20.686Z,2.53
2023-04-21T15:44:47.879Z,3.45
2023-04-21T15:47:17.040Z,2.88
2023-04-21T15:49:44.336Z,3.50
2023-04-21T15:52:11.609Z,3.17
2023-04-21T15:54:39.148Z,3.15
2023-04-21T15:57:06.570Z,3.47
2023-04-21T15:59:33.670Z,2.90
2023-04-21T16:02:00.898Z,3.45
2023-04-21T16:04:28.401Z,3.10
2023-04-21T16:06:55.778Z,3.42
2023-04-21T16:09:22.770Z,4.07
2023-04-21T16:11:50.394Z,2.78
2023-04-21T16:14:18.502Z,2.65
2023-04-21T16:16:46.265Z,3.38
2023-04-21T16:19:13.558Z,2.97
2023-04-21T16:21:40.973Z,2.97
2023-04-21T16:24:08.767Z,3.30
2023-04-21T16:26:36.831Z,2.92
2023-04-21T16:29:04.018Z,3.05
2023-04-21T16:31:31.669Z,2.90
2023-04-21T16:34:00.339Z,3.38
2023-04-21T16:36:28.636Z,3.25
2023-04-21T16:38:56.296Z,3.35
2023-04-21T16:41:23.564Z,3.03
2023-04-21T16:43:50.862Z,3.00
2023-04-21T16:46:18.378Z,3.30
2023-04-21T16:48:46.208Z,3.55
2023-04-21T16:51:13.315Z,3.45
2023-04-21T16:53:42.085Z,3.03
2023-04-21T16:56:09.654Z,4.03
2023-04-21T16:58:37.885Z,3.78
2023-04-21T17:01:07.568Z,3.05
2023-04-21T17:03:35.065Z,3.58
2023-04-21T17:06:04.665Z,3.75
2023-04-21T17:08:31.805Z,3.38
2023-04-21T17:11:00.286Z,4.47
2023-04-21T17:13:27.463Z,14.13
2023-04-21T17:15:54.561Z,14.73
2023-04-21T17:18:21.871Z,12.07
2023-04-21T17:20:48.880Z,16.10
2023-04-21T17:23:15.998Z,17.52
2023-04-21T17:25:43.189Z,18.00
2023-04-21T17:28:10.647Z,17.33
2023-04-21T17:30:37.797Z,16.23
2023-04-21T17:33:16.135Z,17.05
2023-04-21T17:36:01.763Z,14.20
2023-04-21T17:38:30.358Z,12.73
2023-04-21T17:40:57.369Z,14.15
2023-04-21T17:43:24.575Z,11.05
2023-04-21T17:45:52.497Z,10.60
2023-04-21T17:48:20.037Z,11.25
2023-04-21T17:50:47.110Z,11.73
2023-04-21T17:53:14.188Z,10.55
2023-04-21T17:55:41.335Z,10.02
2023-04-21T17:58:11.606Z,9.55
2023-04-21T18:00:39.666Z,9.10
2023-04-21T18:03:07.376Z,10.10
2023-04-21T18:05:34.993Z,9.63
2023-04-21T18:08:02.986Z,8.00
2023-04-21T18:10:30.223Z,7.88
2023-04-21T18:12:58.298Z,9.40
2023-04-21T18:15:25.786Z,9.20
2023-04-21T18:17:53.477Z,10.07
2023-04-21T18:20:20.769Z,10.48
2023-04-21T18:22:50.664Z,11.65
2023-04-21T18:25:30.608Z,17.02
2023-04-21T18:28:07.405Z,22.92
2023-04-21T18:30:34.994Z,20.30
2023-04-21T18:33:02.713Z,18.27
2023-04-21T18:35:32.103Z,16.40
2023-04-21T18:38:00.030Z,16.52
2023-04-21T18:40:27.630Z,16.35
2023-04-21T18:42:54.904Z,14.45
2023-04-21T18:45:22.505Z,12.70
2023-04-21T18:47:50.498Z,15.07
2023-04-21T18:50:19.604Z,12.52
2023-04-21T18:52:47.606Z,13.13
2023-04-21T18:55:15.853Z,13.02
2023-04-21T18:57:43.405Z,11.60
2023-04-21T19:00:11.314Z,11.63
2023-04-21T19:02:39.666Z,11.23
2023-04-21T19:05:07.841Z,10.80
2023-04-21T19:07:36.332Z,10.90
2023-04-21T19:10:04.962Z,11.35
2023-04-21T19:12:33.014Z,11.40
2023-04-21T19:15:01.710Z,12.40
2023-04-21T19:17:29.230Z,12.48
2023-04-21T19:19:57.525Z,14.23
2023-04-21T19:22:24.964Z,16.63
2023-04-21T19:24:53.476Z,19.83
2023-04-21T19:27:20.881Z,18.30
2023-04-21T19:29:51.448Z,22.15
2023-04-21T19:32:19.768Z,20.73
2023-04-21T19:34:47.882Z,20.05
2023-04-21T19:37:16.486Z,21.80
2023-04-21T19:39:44.407Z,19.25
2023-04-21T19:42:12.271Z,16.83
2023-04-21T19:44:40.341Z,19.05
2023-04-21T19:47:08.675Z,16.23
2023-04-21T19:49:36.931Z,14.57
2023-04-21T19:52:04.262Z,15.38
2023-04-21T19:54:32.712Z,14.85
2023-04-21T19:57:00.527Z,13.95
2023-04-21T19:59:28.504Z,12.65
2023-04-21T20:01:56.463Z,13.15
2023-04-21T20:04:24.055Z,14.57
2023-04-21T20:06:51.728Z,13.30
2023-04-21T20:09:19.104Z,11.95
2023-04-21T20:11:46.629Z,12.07
2023-04-21T20:14:13.945Z,12.68
2023-04-21T20:16:43.139Z,12.85
2023-04-21T20:19:13.827Z,16.05
2023-04-21T20:21:41.029Z,17.17
2023-04-21T20:24:09.169Z,16.48
2023-04-21T20:26:37.181Z,18.42
2023-04-21T20:29:05.069Z,18.95
2023-04-21T20:31:33.338Z,21.23
2023-04-21T20:34:00.932Z,22.58
2023-04-21T20:36:28.567Z,20.42
2023-04-21T20:38:57.376Z,22.00
2023-04-21T20:41:24.619Z,25.20
2023-04-21T20:43:52.251Z,24.23
2023-04-21T20:46:19.533Z,24.63
2023-04-21T20:48:47.256Z,23.23
2023-04-21T20:51:14.394Z,21.80
2023-04-21T20:53:41.386Z,23.05
2023-04-21T20:56:08.477Z,25.25
2023-04-21T20:58:36.183Z,24.92
2023-04-21T21:01:03.329Z,23.88
2023-04-21T21:03:31.004Z,28.23
2023-04-21T21:05:58.155Z,26.73
2023-04-21T21:08:25.414Z,23.70
2023-04-21T21:10:52.422Z,23.85
2023-04-21T21:13:19.457Z,24.05
2023-04-21T21:15:46.949Z,20.75
2023-04-21T21:18:14.025Z,23.42
2023-04-21T21:20:41.214Z,21.45
2023-04-21T21:23:08.288Z,22.20
2023-04-21T21:25:35.734Z,22.20
2023-04-21T21:28:02.815Z,21.42
2023-04-21T21:30:29.824Z,21.83
2023-04-21T21:32:56.883Z,22.98
2023-04-21T21:35:24.029Z,22.08
2023-04-21T21:37:51.080Z,21.05
2023-04-21T21:40:18.092Z,20.33
2023-04-21T21:42:45.036Z,20.75
2023-04-21T21:45:12.355Z,20.95
2023-04-21T21:47:42.936Z,21.30
2023-04-21T21:50:14.708Z,23.17
2023-04-21T21:52:42.020Z,21.02
2023-04-21T21:55:09.531Z,20.38
2023-04-21T21:57:37.005Z,23.05
2023-04-21T22:00:08.276Z,23.10
2023-04-21T22:02:36.098Z,22.13
2023-04-21T22:05:04.438Z,20.67
2023-04-21T22:07:31.581Z,21.77
2023-04-21T22:09:59.907Z,22.13
2023-04-21T22:12:27.088Z,21.92
2023-04-21T22:14:54.181Z,19.67
2023-04-21T22:17:22.685Z,21.73
2023-04-21T22:19:49.779Z,22.17
2023-04-21T22:22:16.977Z,22.42
2023-04-21T22:24:44.016Z,21.77
2023-04-21T22:27:11.166Z,22.50
2023-04-21T22:29:38.681Z,21.98
2023-04-21T22:32:06.397Z,21.65
2023-04-21T22:34:33.535Z,21.88
2023-04-21T22:37:00.557Z,19.75
2023-04-21T22:39:28.913Z,21.88
2023-04-21T22:41:57.396Z,21.77
2023-04-21T22:44:24.808Z,23.30
2023-04-21T22:46:52.044Z,23.15
2023-04-21T22:49:19.085Z,23.85
2023-04-21T22:51:47.345Z,24.02
2023-04-21T22:54:14.905Z,23.27
2023-04-21T22:56:42.280Z,22.98
2023-04-21T22:59:09.292Z,24.15
2023-04-21T23:01:36.304Z,22.80
2023-04-21T23:04:03.562Z,21.42
2023-04-21T23:06:32.060Z,21.92
2023-04-21T23:08:59.032Z,21.80
2023-04-21T23:11:26.168Z,20.85
2023-04-21T23:13:53.233Z,19.60
2023-04-21T23:16:20.383Z,20.85
2023-04-21T23:18:47.481Z,21.27
2023-04-21T23:21:14.755Z,21.35
2023-04-21T23:23:41.758Z,20.50
2023-04-21T23:26:08.793Z,19.98
2023-04-21T23:28:35.846Z,20.67
2023-04-21T23:31:02.949Z,18.55
2023-04-21T23:33:30.029Z,20.50
2023-04-21T23:35:57.252Z,20.98
2023-04-21T23:38:24.228Z,19.13
2023-04-21T23:40:51.276Z,20.00
2023-04-21T23:43:18.233Z,19.95
2023-04-21T23:45:45.502Z,18.67
2023-04-21T23:48:12.529Z,18.50
2023-04-21T23:50:39.570Z,17.65
2023-04-21T23:53:06.603Z,17.75
2023-04-21T23:55:33.686Z,18.65
2023-04-21T23:58:00.678Z,18.38
